Terminal Aerodrome Forecast
Issued by NWS

Home | Current Version | Previous Version | Text Only | Print | Product List | Glossary On
Versions: 1 2 3 4 5 6 7 8 9 10 11 12 13 14 15 16 17 18
000
FTUS44 KTSA 220500
TAFMLC
TAF
KMLC 220520Z 2206/2306 17003KT P6SM SCT250
     FM221500 18007KT P6SM SCT040
     FM230000 15003KT P6SM SKC=

USA.gov is the U.S. government's official web portal to all federal, state and local government web resources and services.